sensor_id;sensor_type;location;lat;lon;timestamp;pressure;altitude;pressure_sealevel;temperature;humidity
46534;BME280;32260;52.008;4.752;2023-03-03T00:01:36;102655.84;;;3.37;69.54
46534;BME280;32260;52.008;4.752;2023-03-03T00:04:02;102652.28;;;3.35;69.61
46534;BME280;32260;52.008;4.752;2023-03-03T00:06:29;102660.06;;;3.33;69.59
46534;BME280;32260;52.008;4.752;2023-03-03T00:08:55;102661.81;;;3.33;70.14
46534;BME280;32260;52.008;4.752;2023-03-03T00:11:21;102660.84;;;3.31;69.99
46534;BME280;32260;52.008;4.752;2023-03-03T00:13:51;102660.84;;;3.31;70.04
46534;BME280;32260;52.008;4.752;2023-03-03T00:16:28;102661.72;;;3.31;70.10
46534;BME280;32260;52.008;4.752;2023-03-03T00:18:55;102660.59;;;3.24;69.74
46534;BME280;32260;52.008;4.752;2023-03-03T00:29:29;102666.13;;;3.10;71.08
46534;BME280;32260;52.008;4.752;2023-03-03T00:34:54;102669.53;;;3.30;71.17
46534;BME280;32260;52.008;4.752;2023-03-03T00:37:31;102668.00;;;3.35;70.83
46534;BME280;32260;52.008;4.752;2023-03-03T00:40:12;102668.00;;;3.35;70.84
46534;BME280;32260;52.008;4.752;2023-03-03T00:42:42;102665.44;;;3.36;71.29
46534;BME280;32260;52.008;4.752;2023-03-03T00:50:58;102669.06;;;3.40;71.54
46534;BME280;32260;52.008;4.752;2023-03-03T00:53:27;102664.78;;;3.42;71.88
46534;BME280;32260;52.008;4.752;2023-03-03T00:55:53;102663.91;;;3.42;72.97
46534;BME280;32260;52.008;4.752;2023-03-03T00:58:20;102666.69;;;3.46;73.26
46534;BME280;32260;52.008;4.752;2023-03-03T01:00:48;102671.28;;;3.52;73.38
46534;BME280;32260;52.008;4.752;2023-03-03T01:03:18;102672.28;;;3.55;73.37
46534;BME280;32260;52.008;4.752;2023-03-03T01:05:45;102675.94;;;3.59;73.25
46534;BME280;32260;52.008;4.752;2023-03-03T01:08:11;102675.19;;;3.63;73.38
46534;BME280;32260;52.008;4.752;2023-03-03T01:10:43;102674.47;;;3.67;73.15
46534;BME280;32260;52.008;4.752;2023-03-03T01:13:11;102665.72;;;3.67;72.76
46534;BME280;32260;52.008;4.752;2023-03-03T01:15:38;102667.56;;;3.69;72.64
46534;BME280;32260;52.008;4.752;2023-03-03T01:18:05;102671.06;;;3.70;72.66
46534;BME280;32260;52.008;4.752;2023-03-03T01:20:31;102669.31;;;3.69;73.67
46534;BME280;32260;52.008;4.752;2023-03-03T01:22:58;102671.16;;;3.71;73.49
46534;BME280;32260;52.008;4.752;2023-03-03T01:25:24;102674.66;;;3.72;73.51
46534;BME280;32260;52.008;4.752;2023-03-03T01:27:50;102667.66;;;3.72;73.95
46534;BME280;32260;52.008;4.752;2023-03-03T01:30:16;102671.31;;;3.76;73.73
46534;BME280;32260;52.008;4.752;2023-03-03T01:32:42;102669.53;;;3.75;73.48
46534;BME280;32260;52.008;4.752;2023-03-03T01:35:09;102667.84;;;3.77;73.50
46534;BME280;32260;52.008;4.752;2023-03-03T01:37:35;102667.84;;;3.77;73.56
46534;BME280;32260;52.008;4.752;2023-03-03T01:40:03;102661.69;;;3.75;73.03
46534;BME280;32260;52.008;4.752;2023-03-03T01:42:29;102669.53;;;3.75;73.62
46534;BME280;32260;52.008;4.752;2023-03-03T01:45:20;102666.28;;;3.82;73.68
46534;BME280;32260;52.008;4.752;2023-03-03T01:47:58;102666.19;;;3.79;73.13
46534;BME280;32260;52.008;4.752;2023-03-03T01:53:14;102670.38;;;3.74;73.35
46534;BME280;32260;52.008;4.752;2023-03-03T01:55:41;102673.53;;;3.65;73.33
46534;BME280;32260;52.008;4.752;2023-03-03T01:58:15;102669.31;;;3.69;73.52
46534;BME280;32260;52.008;4.752;2023-03-03T02:00:47;102669.22;;;3.67;73.28
46534;BME280;32260;52.008;4.752;2023-03-03T02:03:15;102680.50;;;3.65;73.06
46534;BME280;32260;52.008;4.752;2023-03-03T02:05:42;102672.53;;;3.62;73.43
46534;BME280;32260;52.008;4.752;2023-03-03T02:08:10;102666.28;;;3.58;73.21
46534;BME280;32260;52.008;4.752;2023-03-03T02:10:39;102671.38;;;3.55;72.86
46534;BME280;32260;52.008;4.752;2023-03-03T02:13:06;102668.59;;;3.50;72.70
46534;BME280;32260;52.008;4.752;2023-03-03T02:15:33;102665.03;;;3.48;73.63
46534;BME280;32260;52.008;4.752;2023-03-03T02:18:18;102675.75;;;3.54;72.80
46534;BME280;32260;52.008;4.752;2023-03-03T02:28:45;102678.63;;;3.38;72.58
46534;BME280;32260;52.008;4.752;2023-03-03T02:31:15;102674.19;;;3.37;72.59
46534;BME280;32260;52.008;4.752;2023-03-03T02:33:44;102674.97;;;3.34;72.20
46534;BME280;32260;52.008;4.752;2023-03-03T02:36:14;102677.53;;;3.33;72.92
46534;BME280;32260;52.008;4.752;2023-03-03T02:41:28;102674.78;;;3.30;72.30
46534;BME280;32260;52.008;4.752;2023-03-03T02:43:59;102672.75;;;3.22;72.15
46534;BME280;32260;52.008;4.752;2023-03-03T02:46:27;102675.13;;;3.16;72.34
46534;BME280;32260;52.008;4.752;2023-03-03T02:48:53;102673.22;;;3.12;71.71
46534;BME280;32260;52.008;4.752;2023-03-03T02:51:20;102672.16;;;3.07;72.28
46534;BME280;32260;52.008;4.752;2023-03-03T02:53:46;102675.47;;;3.03;72.32
46534;BME280;32260;52.008;4.752;2023-03-03T02:56:12;102669.13;;;2.98;71.81
46534;BME280;32260;52.008;4.752;2023-03-03T02:58:38;102675.91;;;2.92;72.05
46534;BME280;32260;52.008;4.752;2023-03-03T03:01:04;102681.03;;;2.89;72.04
46534;BME280;32260;52.008;4.752;2023-03-03T03:03:30;102680.97;;;2.88;71.94
46534;BME280;32260;52.008;4.752;2023-03-03T03:05:57;102678.38;;;2.88;72.46
46534;BME280;32260;52.008;4.752;2023-03-03T03:08:23;102683.66;;;2.89;72.13
46534;BME280;32260;52.008;4.752;2023-03-03T03:10:50;102677.69;;;2.94;72.15
46534;BME280;32260;52.008;4.752;2023-03-03T03:13:16;102672.72;;;3.00;72.14
46534;BME280;32260;52.008;4.752;2023-03-03T03:15:45;102676.56;;;3.08;72.31
46534;BME280;32260;52.008;4.752;2023-03-03T03:18:12;102679.41;;;3.14;72.42
46534;BME280;32260;52.008;4.752;2023-03-03T03:20:38;102684.06;;;3.21;72.77
46534;BME280;32260;52.008;4.752;2023-03-03T03:23:05;102681.69;;;3.28;72.33
46534;BME280;32260;52.008;4.752;2023-03-03T03:25:31;102676.56;;;3.31;73.03
46534;BME280;32260;52.008;4.752;2023-03-03T03:27:58;102682.16;;;3.40;72.89
46534;BME280;32260;52.008;4.752;2023-03-03T03:30:24;102680.56;;;3.44;72.89
46534;BME280;32260;52.008;4.752;2023-03-03T03:32:50;102678.13;;;3.48;72.50
46534;BME280;32260;52.008;4.752;2023-03-03T03:35:16;102684.44;;;3.53;73.03
46534;BME280;32260;52.008;4.752;2023-03-03T03:37:43;102684.69;;;3.60;72.41
46534;BME280;32260;52.008;4.752;2023-03-03T03:40:11;102680.53;;;3.66;72.88
46534;BME280;32260;52.008;4.752;2023-03-03T03:42:37;102686.81;;;3.70;73.05
46534;BME280;32260;52.008;4.752;2023-03-03T03:45:05;102687.91;;;3.75;72.91
46534;BME280;32260;52.008;4.752;2023-03-03T03:47:31;102679.16;;;3.76;72.36
46534;BME280;32260;52.008;4.752;2023-03-03T03:49:57;102679.16;;;3.76;72.46
46534;BME280;32260;52.008;4.752;2023-03-03T03:52:23;102677.56;;;3.80;72.40
46534;BME280;32260;52.008;4.752;2023-03-03T03:54:49;102679.50;;;3.84;72.63
46534;BME280;32260;52.008;4.752;2023-03-03T03:57:15;102685.72;;;3.87;72.91
46534;BME280;32260;52.008;4.752;2023-03-03T03:59:41;102685.84;;;3.91;72.83
46534;BME280;32260;52.008;4.752;2023-03-03T04:02:07;102690.34;;;3.95;72.69
46534;BME280;32260;52.008;4.752;2023-03-03T04:04:33;102693.06;;;3.96;72.67
46534;BME280;32260;52.008;4.752;2023-03-03T04:07:00;102687.03;;;3.99;72.81
46534;BME280;32260;52.008;4.752;2023-03-03T04:09:26;102684.50;;;4.02;72.37
46534;BME280;32260;52.008;4.752;2023-03-03T04:11:53;102693.34;;;4.04;72.14
46534;BME280;32260;52.008;4.752;2023-03-03T04:14:19;102704.75;;;4.06;72.25
46534;BME280;32260;52.008;4.752;2023-03-03T04:16:45;102704.75;;;4.06;72.24
46534;BME280;32260;52.008;4.752;2023-03-03T04:19:11;102702.25;;;4.09;72.50
46534;BME280;32260;52.008;4.752;2023-03-03T04:21:37;102697.00;;;4.09;72.14
46534;BME280;32260;52.008;4.752;2023-03-03T04:24:03;102710.97;;;4.08;72.13
46534;BME280;32260;52.008;4.752;2023-03-03T04:26:29;102705.75;;;4.10;71.77
46534;BME280;32260;52.008;4.752;2023-03-03T04:28:56;102700.59;;;4.11;72.49
46534;BME280;32260;52.008;4.752;2023-03-03T04:31:23;102704.97;;;4.12;72.65
46534;BME280;32260;52.008;4.752;2023-03-03T04:33:50;102704.28;;;4.16;72.13
46534;BME280;32260;52.008;4.752;2023-03-03T04:36:17;102700.88;;;4.19;72.44
46534;BME280;32260;52.008;4.752;2023-03-03T04:38:43;102704.50;;;4.23;72.31
46534;BME280;32260;52.008;4.752;2023-03-03T04:41:09;102708.06;;;4.25;72.37
46534;BME280;32260;52.008;4.752;2023-03-03T04:43:36;102702.81;;;4.25;72.23
46534;BME280;32260;52.008;4.752;2023-03-03T04:46:02;102703.75;;;4.27;72.38
46534;BME280;32260;52.008;4.752;2023-03-03T04:48:28;102703.81;;;4.28;72.41
46534;BME280;32260;52.008;4.752;2023-03-03T04:50:54;102705.59;;;4.29;72.48
46534;BME280;32260;52.008;4.752;2023-03-03T04:53:21;102710.06;;;4.32;72.03
46534;BME280;32260;52.008;4.752;2023-03-03T04:55:50;102708.41;;;4.34;72.63
46534;BME280;32260;52.008;4.752;2023-03-03T04:58:17;102705.69;;;4.32;72.16
46534;BME280;32260;52.008;4.752;2023-03-03T05:00:45;102713.66;;;4.34;72.37
46534;BME280;32260;52.008;4.752;2023-03-03T05:03:12;102713.75;;;4.37;72.42
46534;BME280;32260;52.008;4.752;2023-03-03T05:05:39;102709.50;;;4.41;72.04
46534;BME280;32260;52.008;4.752;2023-03-03T05:08:05;102710.50;;;4.44;72.31
46534;BME280;32260;52.008;4.752;2023-03-03T05:10:31;102713.09;;;4.43;72.17
46534;BME280;32260;52.008;4.752;2023-03-03T05:12:57;102712.28;;;4.45;72.37
46534;BME280;32260;52.008;4.752;2023-03-03T05:15:23;102717.53;;;4.45;72.34
46534;BME280;32260;52.008;4.752;2023-03-03T05:17:49;102708.72;;;4.43;72.04
46534;BME280;32260;52.008;4.752;2023-03-03T05:20:18;102711.28;;;4.42;72.34
46534;BME280;32260;52.008;4.752;2023-03-03T05:22:44;102712.16;;;4.42;72.29
46534;BME280;32260;52.008;4.752;2023-03-03T05:25:10;102716.38;;;4.37;71.99
46534;BME280;32260;52.008;4.752;2023-03-03T05:27:37;102717.31;;;4.39;72.06
46534;BME280;32260;52.008;4.752;2023-03-03T05:30:04;102724.38;;;4.40;72.19
46534;BME280;32260;52.008;4.752;2023-03-03T05:32:31;102711.25;;;4.40;71.88
46534;BME280;32260;52.008;4.752;2023-03-03T05:34:57;102713.88;;;4.40;72.13
46534;BME280;32260;52.008;4.752;2023-03-03T05:37:23;102717.41;;;4.42;71.79
46534;BME280;32260;52.008;4.752;2023-03-03T05:39:49;102717.41;;;4.42;72.29
46534;BME280;32260;52.008;4.752;2023-03-03T05:42:16;102716.63;;;4.45;71.65
46534;BME280;32260;52.008;4.752;2023-03-03T05:44:42;102709.69;;;4.45;71.95
46534;BME280;32260;52.008;4.752;2023-03-03T05:47:08;102723.59;;;4.43;72.14
46534;BME280;32260;52.008;4.752;2023-03-03T05:49:34;102714.91;;;4.45;72.18
46534;BME280;32260;52.008;4.752;2023-03-03T05:52:00;102717.63;;;4.48;72.21
46534;BME280;32260;52.008;4.752;2023-03-03T05:54:27;102714.91;;;4.45;72.40
46534;BME280;32260;52.008;4.752;2023-03-03T05:56:53;102714.97;;;4.47;72.19
46534;BME280;32260;52.008;4.752;2023-03-03T05:59:19;102723.03;;;4.51;71.80
46534;BME280;32260;52.008;4.752;2023-03-03T06:01:45;102719.56;;;4.52;71.92
46534;BME280;32260;52.008;4.752;2023-03-03T06:04:11;102721.31;;;4.53;71.92
46534;BME280;32260;52.008;4.752;2023-03-03T06:06:38;102710.94;;;4.57;71.81
46534;BME280;32260;52.008;4.752;2023-03-03T06:09:04;102717.06;;;4.57;71.64
46534;BME280;32260;52.008;4.752;2023-03-03T06:11:30;102718.03;;;4.59;71.81
46534;BME280;32260;52.008;4.752;2023-03-03T06:13:56;102725.13;;;4.62;72.24
46534;BME280;32260;52.008;4.752;2023-03-03T06:16:22;102720.00;;;4.65;72.10
46534;BME280;32260;52.008;4.752;2023-03-03T06:18:48;102720.00;;;4.65;72.06
46534;BME280;32260;52.008;4.752;2023-03-03T06:21:14;102725.34;;;4.68;71.95
46534;BME280;32260;52.008;4.752;2023-03-03T06:23:40;102734.16;;;4.70;71.83
46534;BME280;32260;52.008;4.752;2023-03-03T06:26:07;102734.09;;;4.68;72.18
46534;BME280;32260;52.008;4.752;2023-03-03T06:28:33;102727.91;;;4.66;71.78
46534;BME280;32260;52.008;4.752;2023-03-03T06:30:59;102734.84;;;4.64;71.51
46534;BME280;32260;52.008;4.752;2023-03-03T06:33:25;102736.44;;;4.61;71.67
46534;BME280;32260;52.008;4.752;2023-03-03T06:35:52;102740.81;;;4.60;71.67
46534;BME280;32260;52.008;4.752;2023-03-03T06:38:19;102749.59;;;4.61;71.69
46534;BME280;32260;52.008;4.752;2023-03-03T06:40:46;102746.03;;;4.59;71.42
46534;BME280;32260;52.008;4.752;2023-03-03T06:43:12;102752.94;;;4.57;71.78
46534;BME280;32260;52.008;4.752;2023-03-03T06:45:39;102753.81;;;4.57;71.86
46534;BME280;32260;52.008;4.752;2023-03-03T06:48:05;102759.06;;;4.57;71.82
46534;BME280;32260;52.008;4.752;2023-03-03T06:50:31;102758.28;;;4.60;71.90
46534;BME280;32260;52.008;4.752;2023-03-03T06:53:05;102761.09;;;4.64;71.87
46534;BME280;32260;52.008;4.752;2023-03-03T06:55:33;102761.88;;;4.62;72.33
46534;BME280;32260;52.008;4.752;2023-03-03T06:57:59;102764.63;;;4.65;72.22
46534;BME280;32260;52.008;4.752;2023-03-03T07:00:27;102769.09;;;4.67;72.04
46534;BME280;32260;52.008;4.752;2023-03-03T07:02:59;102764.88;;;4.73;71.83
46534;BME280;32260;52.008;4.752;2023-03-03T07:05:28;102766.69;;;4.74;72.32
46534;BME280;32260;52.008;4.752;2023-03-03T07:07:55;102768.56;;;4.78;72.06
46534;BME280;32260;52.008;4.752;2023-03-03T07:10:24;102769.44;;;4.78;72.27
46534;BME280;32260;52.008;4.752;2023-03-03T07:12:51;102774.91;;;4.84;71.93
46534;BME280;32260;52.008;4.752;2023-03-03T07:15:23;102775.97;;;4.90;72.22
46534;BME280;32260;52.008;4.752;2023-03-03T07:17:55;102776.91;;;4.92;72.04
46534;BME280;32260;52.008;4.752;2023-03-03T07:20:34;102782.28;;;4.95;72.41
46534;BME280;32260;52.008;4.752;2023-03-03T07:23:25;102790.25;;;4.98;72.48
46534;BME280;32260;52.008;4.752;2023-03-03T07:25:53;102781.44;;;4.96;71.87
46534;BME280;32260;52.008;4.752;2023-03-03T07:31:03;102788.59;;;5.00;72.23
46534;BME280;32260;52.008;4.752;2023-03-03T07:33:44;102794.91;;;5.05;72.16
46534;BME280;32260;52.008;4.752;2023-03-03T07:36:29;102796.09;;;5.15;72.07
46534;BME280;32260;52.008;4.752;2023-03-03T07:38:59;102795.19;;;5.14;71.95
46534;BME280;32260;52.008;4.752;2023-03-03T07:41:27;102796.91;;;5.12;71.88
46534;BME280;32260;52.008;4.752;2023-03-03T07:44:03;102798.66;;;5.13;71.71
46534;BME280;32260;52.008;4.752;2023-03-03T07:46:50;102804.25;;;5.23;71.93
46534;BME280;32260;52.008;4.752;2023-03-03T07:51:56;102804.34;;;5.26;71.83
46534;BME280;32260;52.008;4.752;2023-03-03T07:57:16;102810.00;;;5.38;71.56
46534;BME280;32260;52.008;4.752;2023-03-03T08:02:38;102813.72;;;5.43;71.88
46534;BME280;32260;52.008;4.752;2023-03-03T08:05:38;102811.16;;;5.46;71.78
46534;BME280;32260;52.008;4.752;2023-03-03T08:08:32;102817.38;;;5.48;71.77
46534;BME280;32260;52.008;4.752;2023-03-03T08:11:02;102819.13;;;5.49;71.94
46534;BME280;32260;52.008;4.752;2023-03-03T08:18:46;102831.13;;;5.67;71.82
46534;BME280;32260;52.008;4.752;2023-03-03T08:21:19;102830.44;;;5.74;71.66
46534;BME280;32260;52.008;4.752;2023-03-03T08:23:46;102828.84;;;5.79;71.94
46534;BME280;32260;52.008;4.752;2023-03-03T08:26:14;102829.06;;;5.86;72.00
46534;BME280;32260;52.008;4.752;2023-03-03T08:28:41;102839.03;;;5.96;71.85
46534;BME280;32260;52.008;4.752;2023-03-03T08:31:07;102843.63;;;6.02;71.73
46534;BME280;32260;52.008;4.752;2023-03-03T08:33:34;102842.91;;;6.06;71.54
46534;BME280;32260;52.008;4.752;2023-03-03T08:36:00;102844.75;;;6.10;71.38
46534;BME280;32260;52.008;4.752;2023-03-03T08:38:26;102842.28;;;6.14;71.45
46534;BME280;32260;52.008;4.752;2023-03-03T08:40:53;102840.72;;;6.21;71.07
46534;BME280;32260;52.008;4.752;2023-03-03T08:43:19;102844.31;;;6.23;71.10
46534;BME280;32260;52.008;4.752;2023-03-03T08:45:49;102840.06;;;6.28;71.01
46534;BME280;32260;52.008;4.752;2023-03-03T08:48:20;102838.50;;;6.35;70.95
46534;BME280;32260;52.008;4.752;2023-03-03T08:50:47;102844.78;;;6.40;71.00
46534;BME280;32260;52.008;4.752;2023-03-03T08:53:14;102847.75;;;6.51;71.14
46534;BME280;32260;52.008;4.752;2023-03-03T08:55:40;102840.78;;;6.53;70.38
46534;BME280;32260;52.008;4.752;2023-03-03T08:58:07;102854.94;;;6.57;70.32
46534;BME280;32260;52.008;4.752;2023-03-03T09:00:34;102855.13;;;6.63;70.20
46534;BME280;32260;52.008;4.752;2023-03-03T09:03:00;102857.00;;;6.69;70.05
46534;BME280;32260;52.008;4.752;2023-03-03T09:05:27;102850.09;;;6.72;69.82
46534;BME280;32260;52.008;4.752;2023-03-03T09:07:54;102858.19;;;6.78;69.89
46534;BME280;32260;52.008;4.752;2023-03-03T09:10:23;102858.41;;;6.88;69.59
46534;BME280;32260;52.008;4.752;2023-03-03T09:12:57;102855.22;;;6.98;69.67
46534;BME280;32260;52.008;4.752;2023-03-03T09:15:29;102852.03;;;7.11;69.71
46534;BME280;32260;52.008;4.752;2023-03-03T09:18:04;102860.81;;;7.10;69.22
46534;BME280;32260;52.008;4.752;2023-03-03T09:20:42;102855.78;;;7.20;69.40
46534;BME280;32260;52.008;4.752;2023-03-03T09:23:37;102854.47;;;7.37;69.58
46534;BME280;32260;52.008;4.752;2023-03-03T09:28:47;102856.72;;;7.57;68.78
46534;BME280;32260;52.008;4.752;2023-03-03T09:32:23;102850.06;;;7.71;68.67
46534;BME280;32260;52.008;4.752;2023-03-03T09:37:22;102853.59;;;7.73;66.53
46534;BME280;32260;52.008;4.752;2023-03-03T09:39:52;102846.34;;;7.65;67.28
46534;BME280;32260;52.008;4.752;2023-03-03T09:53:59;102858.69;;;7.31;66.88
46534;BME280;32260;52.008;4.752;2023-03-03T10:11:08;102848.50;;;8.19;66.15
46534;BME280;32260;52.008;4.752;2023-03-03T10:24:46;102846.09;;;8.71;65.02
46534;BME280;32260;52.008;4.752;2023-03-03T10:30:20;102844.16;;;9.09;64.61
46534;BME280;32260;52.008;4.752;2023-03-03T10:32:57;102846.94;;;9.16;63.86
46534;BME280;32260;52.008;4.752;2023-03-03T10:35:37;102835.63;;;9.25;63.77
46534;BME280;32260;52.008;4.752;2023-03-03T10:38:16;102844.53;;;9.30;62.66
46534;BME280;32260;52.008;4.752;2023-03-03T10:41:10;102844.75;;;9.43;62.38
46534;BME280;32260;52.008;4.752;2023-03-03T10:46:31;102846.53;;;9.44;62.21
46534;BME280;32260;52.008;4.752;2023-03-03T10:49:13;102847.50;;;9.49;62.06
46534;BME280;32260;52.008;4.752;2023-03-03T10:54:52;102851.19;;;9.57;62.07
46534;BME280;32260;52.008;4.752;2023-03-03T10:57:45;102844.97;;;9.57;60.82
46534;BME280;32260;52.008;4.752;2023-03-03T11:00:48;102850.34;;;9.61;61.35
46534;BME280;32260;52.008;4.752;2023-03-03T11:16:00;102838.13;;;10.31;60.54
46534;BME280;32260;52.008;4.752;2023-03-03T11:18:09;102837.28;;;10.32;58.63
46534;BME280;32260;52.008;4.752;2023-03-03T11:21:46;102835.56;;;10.35;60.94
46534;BME280;32260;52.008;4.752;2023-03-03T11:23:54;102848.00;;;10.40;58.83
46534;BME280;32260;52.008;4.752;2023-03-03T11:29:38;102832.25;;;10.52;59.14
46534;BME280;32260;52.008;4.752;2023-03-03T11:32:18;102833.25;;;10.62;58.50
46534;BME280;32260;52.008;4.752;2023-03-03T11:34:55;102828.81;;;10.59;58.09
46534;BME280;32260;52.008;4.752;2023-03-03T11:40:38;102836.66;;;10.51;57.39
46534;BME280;32260;52.008;4.752;2023-03-03T11:46:08;102827.03;;;10.61;57.65
46534;BME280;32260;52.008;4.752;2023-03-03T11:49:00;102827.97;;;10.63;57.83
46534;BME280;32260;52.008;4.752;2023-03-03T11:54:14;102823.69;;;10.78;57.66
46534;BME280;32260;52.008;4.752;2023-03-03T11:56:44;102820.38;;;10.97;57.11
46534;BME280;32260;52.008;4.752;2023-03-03T12:01:55;102813.63;;;11.33;56.07
46534;BME280;32260;52.008;4.752;2023-03-03T12:10:35;102797.84;;;11.52;53.79
46534;BME280;32260;52.008;4.752;2023-03-03T12:13:29;102796.25;;;11.76;51.46
46534;BME280;32260;52.008;4.752;2023-03-03T12:19:28;102800.88;;;12.11;50.01
46534;BME280;32260;52.008;4.752;2023-03-03T12:33:01;102780.72;;;12.66;49.26
46534;BME280;32260;52.008;4.752;2023-03-03T12:41:48;102774.56;;;13.13;47.15
46534;BME280;32260;52.008;4.752;2023-03-03T12:44:53;102774.56;;;13.30;47.30
46534;BME280;32260;52.008;4.752;2023-03-03T12:58:48;102778.03;;;12.61;47.97
46534;BME280;32260;52.008;4.752;2023-03-03T13:01:47;102772.69;;;12.45;47.89
46534;BME280;32260;52.008;4.752;2023-03-03T13:07:18;102778.78;;;12.20;48.35
46534;BME280;32260;52.008;4.752;2023-03-03T13:12:33;102775.19;;;12.07;48.74
46534;BME280;32260;52.008;4.752;2023-03-03T13:15:14;102768.88;;;11.91;49.55
46534;BME280;32260;52.008;4.752;2023-03-03T13:17:56;102765.28;;;11.76;49.66
46534;BME280;32260;52.008;4.752;2023-03-03T13:20:40;102767.97;;;11.86;48.87
46534;BME280;32260;52.008;4.752;2023-03-03T13:23:27;102762.81;;;12.09;50.00
46534;BME280;32260;52.008;4.752;2023-03-03T13:28:40;102761.22;;;12.64;47.81
46534;BME280;32260;52.008;4.752;2023-03-03T13:31:16;102754.16;;;12.84;47.56
46534;BME280;32260;52.008;4.752;2023-03-03T13:33:53;102750.59;;;12.87;45.49
46534;BME280;32260;52.008;4.752;2023-03-03T13:36:22;102755.91;;;12.79;46.53
46534;BME280;32260;52.008;4.752;2023-03-03T13:38:58;102747.06;;;12.74;45.57
46534;BME280;32260;52.008;4.752;2023-03-03T13:41:29;102750.59;;;12.76;47.39
46534;BME280;32260;52.008;4.752;2023-03-03T13:44:33;102753.28;;;12.77;46.61
46534;BME280;32260;52.008;4.752;2023-03-03T13:47:12;102749.72;;;12.82;45.08
46534;BME280;32260;52.008;4.752;2023-03-03T13:52:27;102752.38;;;12.77;46.98
46534;BME280;32260;52.008;4.752;2023-03-03T14:03:54;102743.47;;;12.50;47.55
46534;BME280;32260;52.008;4.752;2023-03-03T14:06:14;102748.75;;;12.38;46.44
46534;BME280;32260;52.008;4.752;2023-03-03T14:10:02;102744.31;;;12.34;46.00
46534;BME280;32260;52.008;4.752;2023-03-03T14:12:06;102752.25;;;12.21;47.15
46534;BME280;32260;52.008;4.752;2023-03-03T14:23:01;102747.44;;;11.60;45.06
46534;BME280;32260;52.008;4.752;2023-03-03T14:25:50;102744.78;;;11.58;46.56
46534;BME280;32260;52.008;4.752;2023-03-03T14:28:21;102737.69;;;11.54;47.59
46534;BME280;32260;52.008;4.752;2023-03-03T14:30:47;102742.19;;;11.64;48.00
46534;BME280;32260;52.008;4.752;2023-03-03T14:36:01;102728.06;;;11.73;45.83
46534;BME280;32260;52.008;4.752;2023-03-03T14:41:14;102732.47;;;11.67;45.05
46534;BME280;32260;52.008;4.752;2023-03-03T14:43:43;102727.16;;;11.70;46.49
46534;BME280;32260;52.008;4.752;2023-03-03T14:46:33;102724.56;;;11.79;45.96
46534;BME280;32260;52.008;4.752;2023-03-03T14:49:04;102722.75;;;11.73;45.07
46534;BME280;32260;52.008;4.752;2023-03-03T14:51:42;102721.84;;;11.70;45.81
46534;BME280;32260;52.008;4.752;2023-03-03T14:54:29;102724.47;;;11.63;46.35
46534;BME280;32260;52.008;4.752;2023-03-03T14:57:14;102729.75;;;11.57;47.12
46534;BME280;32260;52.008;4.752;2023-03-03T14:59:55;102726.16;;;11.54;47.51
46534;BME280;32260;52.008;4.752;2023-03-03T15:02:29;102725.25;;;11.50;48.08
46534;BME280;32260;52.008;4.752;2023-03-03T15:05:17;102730.56;;;11.50;48.11
46534;BME280;32260;52.008;4.752;2023-03-03T15:07:44;102720.78;;;11.40;48.01
46534;BME280;32260;52.008;4.752;2023-03-03T15:10:12;102721.66;;;11.36;48.23
46534;BME280;32260;52.008;4.752;2023-03-03T15:12:50;102725.16;;;11.31;48.64
46534;BME280;32260;52.008;4.752;2023-03-03T15:15:19;102726.91;;;11.28;49.24
46534;BME280;32260;52.008;4.752;2023-03-03T15:18:03;102725.13;;;11.28;49.35
46534;BME280;32260;52.008;4.752;2023-03-03T15:32:28;102714.41;;;11.16;50.08
46534;BME280;32260;52.008;4.752;2023-03-03T15:35:41;102707.31;;;11.10;50.23
46534;BME280;32260;52.008;4.752;2023-03-03T15:38:15;102707.28;;;11.09;50.61
46534;BME280;32260;52.008;4.752;2023-03-03T15:40:48;102701.94;;;11.01;50.57
46534;BME280;32260;52.008;4.752;2023-03-03T15:46:31;102699.25;;;10.98;50.90
46534;BME280;32260;52.008;4.752;2023-03-03T16:01:45;102698.94;;;10.61;50.16
46534;BME280;32260;52.008;4.752;2023-03-03T16:03:41;102705.03;;;10.52;50.07
46534;BME280;32260;52.008;4.752;2023-03-03T16:14:45;102716.81;;;10.02;49.10
46534;BME280;32260;52.008;4.752;2023-03-03T16:17:25;102707.81;;;9.89;49.52
46534;BME280;32260;52.008;4.752;2023-03-03T16:22:48;102716.50;;;9.80;50.07
46534;BME280;32260;52.008;4.752;2023-03-03T16:25:57;102713.78;;;9.74;49.38
46534;BME280;32260;52.008;4.752;2023-03-03T16:34:32;102712.66;;;9.57;49.78
46534;BME280;32260;52.008;4.752;2023-03-03T16:37:17;102704.69;;;9.53;50.76
46534;BME280;32260;52.008;4.752;2023-03-03T16:39:55;102713.38;;;9.45;50.34
46534;BME280;32260;52.008;4.752;2023-03-03T16:42:30;102709.75;;;9.38;50.12
46534;BME280;32260;52.008;4.752;2023-03-03T16:45:25;102708.88;;;9.37;50.54
46534;BME280;32260;52.008;4.752;2023-03-03T16:49:11;102698.28;;;9.39;50.95
46534;BME280;32260;52.008;4.752;2023-03-03T16:51:19;102703.50;;;9.33;50.83
46534;BME280;32260;52.008;4.752;2023-03-03T16:54:04;102711.31;;;9.25;50.41
46534;BME280;32260;52.008;4.752;2023-03-03T17:04:45;102716.22;;;9.00;50.72
46534;BME280;32260;52.008;4.752;2023-03-03T17:07:25;102733.84;;;9.00;51.19
46534;BME280;32260;52.008;4.752;2023-03-03T17:10:41;102729.41;;;8.97;51.15
46534;BME280;32260;52.008;4.752;2023-03-03T17:13:17;102728.44;;;8.94;51.77
46534;BME280;32260;52.008;4.752;2023-03-03T17:18:45;102739.69;;;8.82;51.73
46534;BME280;32260;52.008;4.752;2023-03-03T17:21:27;102739.47;;;8.69;52.41
46534;BME280;32260;52.008;4.752;2023-03-03T17:24:08;102738.47;;;8.63;52.38
46534;BME280;32260;52.008;4.752;2023-03-03T17:30:01;102745.22;;;8.47;52.93
46534;BME280;32260;52.008;4.752;2023-03-03T17:35:18;102749.41;;;8.38;52.70
46534;BME280;32260;52.008;4.752;2023-03-03T17:40:38;102752.84;;;8.33;52.87
46534;BME280;32260;52.008;4.752;2023-03-03T17:43:31;102752.13;;;8.41;53.09
46534;BME280;32260;52.008;4.752;2023-03-03T17:46:02;102757.25;;;8.34;53.24